Time;durP1;ratioP1;P1;durP2;ratioP2;P2;SDS_P1;SDS_P2;PMS_P1;PMS_P2;Temp;Humidity;BMP_temperature;BMP_pressure;BME280_temperature;BME280_humidity;BME280_pressure;Samples;Min_cycle;Max_cycle;Signal;HPM_P1;HPM_P2
2022/10/31 00:00:51;;;;;;;21.73;13.25;;;12.60;99.90;;;;;;5020079;28;20029;-57
2022/10/31 00:03:17;;;;;;;20.25;12.50;;;12.60;99.90;;;;;;5019304;28;20038;-59
2022/10/31 00:05:48;;;;;;;17.23;11.93;;;12.60;99.90;;;;;;5015240;28;20053;-60
2022/10/31 00:08:14;;;;;;;18.45;13.25;;;12.60;99.90;;;;;;5021068;28;20505;-59
2022/10/31 00:10:41;;;;;;;18.90;12.32;;;12.50;99.90;;;;;;5035257;28;20407;-60
2022/10/31 00:13:07;;;;;;;22.27;12.32;;;12.50;99.90;;;;;;5018771;28;20047;-60
2022/10/31 00:15:34;;;;;;;22.50;12.80;;;12.40;99.90;;;;;;5022499;28;20132;-60
2022/10/31 00:18:00;;;;;;;16.85;11.95;;;12.50;99.90;;;;;;5020076;28;20177;-60
2022/10/31 00:20:26;;;;;;;23.52;13.10;;;12.40;99.90;;;;;;5021918;28;20430;-59
2022/10/31 00:22:51;;;;;;;15.85;13.13;;;12.40;99.90;;;;;;5020286;28;20067;-60
2022/10/31 00:25:17;;;;;;;22.73;13.32;;;12.40;99.90;;;;;;5020555;28;20034;-60
2022/10/31 00:27:43;;;;;;;20.95;13.52;;;12.40;99.90;;;;;;5022098;28;20398;-59
2022/10/31 00:30:09;;;;;;;21.63;13.35;;;12.30;99.90;;;;;;5023482;28;20969;-60
2022/10/31 00:32:34;;;;;;;19.75;13.48;;;12.40;99.90;;;;;;5019275;28;20232;-60
2022/10/31 00:35:00;;;;;;;20.00;13.70;;;12.30;99.90;;;;;;5023358;28;20045;-60
2022/10/31 00:37:26;;;;;;;19.67;13.25;;;12.30;99.90;;;;;;5021418;28;20033;-61
2022/10/31 00:39:52;;;;;;;19.77;12.40;;;12.30;99.90;;;;;;5028364;28;20115;-60
2022/10/31 00:42:17;;;;;;;20.48;13.20;;;12.30;99.90;;;;;;5032919;28;20046;-59
2022/10/31 00:44:43;;;;;;;22.25;13.80;;;12.30;99.90;;;;;;5031853;28;20051;-60
2022/10/31 00:47:09;;;;;;;21.73;14.20;;;12.30;99.90;;;;;;5032075;28;20041;-60
2022/10/31 00:49:34;;;;;;;23.00;14.07;;;12.20;99.90;;;;;;5031421;28;20087;-57
2022/10/31 00:52:00;;;;;;;23.38;12.95;;;12.20;99.90;;;;;;5029708;28;20447;-57
2022/10/31 00:54:25;;;;;;;20.20;13.38;;;12.20;99.90;;;;;;5023478;28;20133;-61
2022/10/31 00:56:51;;;;;;;21.33;13.63;;;12.10;99.90;;;;;;5029290;28;20057;-60
2022/10/31 00:59:16;;;;;;;20.95;13.68;;;12.10;99.90;;;;;;5033146;28;20132;-59
2022/10/31 01:01:42;;;;;;;25.42;13.65;;;12.10;99.90;;;;;;5030041;28;20068;-59
2022/10/31 01:04:07;;;;;;;17.08;13.20;;;12.20;99.90;;;;;;5023408;28;20136;-60
2022/10/31 01:06:33;;;;;;;16.55;12.30;;;12.10;99.90;;;;;;5025515;28;20368;-59
2022/10/31 01:08:59;;;;;;;20.75;12.68;;;12.20;99.90;;;;;;5031957;28;20041;-60
2022/10/31 01:11:24;;;;;;;17.80;12.95;;;12.10;99.90;;;;;;5037398;28;20033;-60
2022/10/31 01:13:52;;;;;;;19.30;13.55;;;12.20;99.90;;;;;;5034597;28;20395;-60
2022/10/31 01:16:19;;;;;;;18.92;13.43;;;12.20;99.90;;;;;;5040141;28;20044;-60
2022/10/31 01:18:46;;;;;;;21.05;13.52;;;12.20;99.90;;;;;;5022436;28;21543;-59
2022/10/31 01:21:17;;;;;;;20.60;13.52;;;12.20;99.90;;;;;;5035047;28;20037;-60
2022/10/31 01:23:43;;;;;;;21.45;13.50;;;12.20;99.90;;;;;;5030528;28;20087;-60
2022/10/31 01:26:11;;;;;;;20.90;13.65;;;12.20;99.90;;;;;;5029059;28;20080;-61
2022/10/31 01:28:39;;;;;;;18.95;12.68;;;12.20;99.90;;;;;;5027613;28;20072;-60
2022/10/31 01:31:07;;;;;;;22.50;13.18;;;12.10;99.90;;;;;;5032293;28;20045;-60
2022/10/31 01:33:33;;;;;;;18.05;13.07;;;12.10;99.90;;;;;;5036949;28;20487;-61
2022/10/31 01:35:59;;;;;;;19.38;12.93;;;12.10;99.90;;;;;;5033235;28;20064;-61
2022/10/31 01:38:25;;;;;;;19.30;12.57;;;12.10;99.90;;;;;;5031365;28;20088;-61
2022/10/31 01:40:51;;;;;;;14.50;12.10;;;12.10;99.90;;;;;;5021003;28;20038;-61
2022/10/31 01:43:19;;;;;;;20.25;12.70;;;12.10;99.90;;;;;;5032591;28;20049;-60
2022/10/31 01:45:50;;;;;;;18.77;12.30;;;12.00;99.90;;;;;;5029916;28;20054;-58
2022/10/31 01:48:18;;;;;;;17.58;11.93;;;12.00;99.90;;;;;;5030847;28;20052;-60
2022/10/31 01:50:44;;;;;;;;;;;12.00;99.90;;;;;;5036858;28;20233;-58
2022/10/31 01:53:11;;;;;;;18.63;11.15;;;11.90;99.90;;;;;;5025217;28;19936;-61
2022/10/31 01:55:41;;;;;;;17.77;11.68;;;11.90;99.90;;;;;;5022027;28;20044;-60
2022/10/31 01:58:35;;;;;;;16.67;10.90;;;11.90;99.90;;;;;;5020989;28;20033;-61
2022/10/31 02:01:01;;;;;;;11.95;10.40;;;11.80;99.90;;;;;;5020485;28;20140;-61
2022/10/31 02:03:28;;;;;;;15.63;11.55;;;11.80;99.90;;;;;;5023870;28;20368;-61
2022/10/31 02:05:55;;;;;;;14.20;10.93;;;11.80;99.90;;;;;;5030868;28;20499;-61
2022/10/31 02:08:30;;;;;;;15.83;11.43;;;11.70;99.90;;;;;;5017813;28;21291;-60
2022/10/31 02:10:57;;;;;;;18.85;11.77;;;;;;;;;;5024981;28;20310;-61
2022/10/31 02:13:23;;;;;;;13.68;11.52;;;11.70;99.90;;;;;;5031150;28;20126;-61
2022/10/31 02:15:53;;;;;;;16.27;11.30;;;11.60;99.90;;;;;;5029355;28;20049;-61
2022/10/31 02:18:20;;;;;;;17.77;11.85;;;11.60;99.90;;;;;;5030936;28;20116;-59
2022/10/31 02:21:01;;;;;;;18.02;12.65;;;11.60;99.90;;;;;;5028631;28;20029;-59
2022/10/31 02:23:35;;;;;;;15.95;12.80;;;11.60;99.90;;;;;;5033069;28;20132;-59
2022/10/31 02:26:33;;;;;;;19.05;13.95;;;11.60;99.90;;;;;;5029123;28;20041;-59
2022/10/31 02:29:22;;;;;;;16.08;12.88;;;11.60;99.90;;;;;;4977494;28;20079;-61
2022/10/31 02:32:00;;;;;;;16.35;13.13;;;11.50;99.90;;;;;;4983245;28;20122;-60
2022/10/31 02:34:51;;;;;;;17.85;14.23;;;11.60;99.90;;;;;;4985176;28;20053;-60
2022/10/31 02:37:31;;;;;;;19.83;13.73;;;11.60;99.90;;;;;;4982819;28;20113;-60
2022/10/31 02:40:03;;;;;;;21.15;13.85;;;11.50;99.90;;;;;;4982226;28;20605;-60
2022/10/31 02:42:34;;;;;;;19.02;13.73;;;;;;;;;;4982665;28;20115;-60
2022/10/31 02:45:20;;;;;;;20.08;13.65;;;11.50;99.90;;;;;;4983755;28;20098;-60
2022/10/31 02:47:48;;;;;;;19.30;14.05;;;11.50;99.90;;;;;;4981455;28;20048;-60
2022/10/31 02:50:13;;;;;;;;;;;11.50;99.90;;;;;;4981667;28;20054;-60
2022/10/31 02:52:39;;;;;;;22.40;13.15;;;11.40;99.90;;;;;;4967572;28;19922;-60
2022/10/31 02:55:24;;;;;;;19.25;13.75;;;11.40;99.90;;;;;;4984973;28;20108;-60
2022/10/31 02:58:11;;;;;;;20.77;14.02;;;11.40;99.90;;;;;;4980437;28;20484;-60
2022/10/31 03:00:55;;;;;;;22.58;14.80;;;11.40;99.90;;;;;;4979628;28;20055;-60
2022/10/31 03:03:42;;;;;;;20.10;13.00;;;11.50;99.90;;;;;;4981779;28;20046;-60
2022/10/31 03:06:14;;;;;;;20.10;13.63;;;11.30;99.90;;;;;;5029389;28;20045;-60
2022/10/31 03:08:52;;;;;;;17.45;12.45;;;11.40;99.90;;;;;;5031879;28;20174;-60
2022/10/31 03:11:21;;;;;;;19.50;13.70;;;11.20;99.90;;;;;;5036471;28;20076;-60
2022/10/31 03:13:55;;;;;;;20.98;13.32;;;11.20;99.90;;;;;;5032885;28;20489;-60
2022/10/31 03:16:38;;;;;;;17.88;13.88;;;11.30;99.90;;;;;;5034880;28;20324;-60
2022/10/31 03:19:07;;;;;;;18.90;13.90;;;11.10;99.90;;;;;;5028197;28;20047;-61
2022/10/31 03:21:44;;;;;;;19.33;13.40;;;11.10;99.90;;;;;;5025860;28;20042;-60
2022/10/31 03:24:12;;;;;;;18.20;13.70;;;11.00;99.90;;;;;;5040734;28;20459;-61
2022/10/31 03:26:42;;;;;;;23.05;14.70;;;11.00;99.90;;;;;;5033610;28;20120;-61
2022/10/31 03:29:13;;;;;;;18.83;14.02;;;11.10;99.90;;;;;;5035956;28;20083;-61
2022/10/31 03:31:49;;;;;;;21.15;15.85;;;11.00;99.90;;;;;;5025403;28;20046;-60
2022/10/31 03:34:17;;;;;;;24.38;15.90;;;11.00;99.90;;;;;;5031207;28;20050;-60
2022/10/31 03:36:45;;;;;;;21.98;15.35;;;11.00;99.90;;;;;;5037786;28;20122;-60
2022/10/31 03:39:14;;;;;;;21.38;16.25;;;11.00;99.90;;;;;;5027813;28;20044;-61
2022/10/31 03:41:43;;;;;;;21.92;16.38;;;10.90;99.90;;;;;;5035377;28;20033;-62
2022/10/31 03:44:16;;;;;;;18.70;15.77;;;10.90;99.90;;;;;;5039363;28;20147;-61
2022/10/31 03:46:42;;;;;;;21.20;15.10;;;10.90;99.90;;;;;;5038514;28;20140;-60
2022/10/31 03:49:09;;;;;;;19.13;15.48;;;10.80;99.90;;;;;;5028365;28;20100;-61
2022/10/31 03:51:49;;;;;;;21.58;15.50;;;10.80;99.90;;;;;;5026583;28;20068;-60
2022/10/31 03:54:33;;;;;;;19.35;15.27;;;10.70;99.90;;;;;;5028302;28;20049;-60
2022/10/31 03:57:19;;;;;;;19.50;15.18;;;10.70;99.90;;;;;;5028573;28;20040;-60
2022/10/31 04:00:09;;;;;;;21.23;16.25;;;10.70;99.90;;;;;;5036920;28;20045;-61
2022/10/31 04:02:38;;;;;;;23.23;16.52;;;10.60;99.90;;;;;;5031737;28;20494;-60
2022/10/31 04:05:05;;;;;;;22.02;16.95;;;10.50;99.90;;;;;;5031782;28;20045;-60
2022/10/31 04:07:36;;;;;;;19.65;17.02;;;10.50;99.90;;;;;;5033875;28;20379;-60
2022/10/31 04:10:08;;;;;;;20.33;16.55;;;10.50;99.90;;;;;;5032201;28;20041;-60
2022/10/31 04:12:35;;;;;;;24.75;16.75;;;10.50;99.90;;;;;;5033747;28;20060;-61
2022/10/31 04:15:04;;;;;;;18.40;15.73;;;10.40;99.90;;;;;;5030349;28;20041;-61
2022/10/31 04:17:34;;;;;;;19.60;16.17;;;10.40;99.90;;;;;;5026508;28;20057;-60
2022/10/31 04:20:02;;;;;;;21.33;17.48;;;10.40;99.90;;;;;;5032664;28;20512;-60
2022/10/31 04:22:28;;;;;;;25.30;17.95;;;10.30;99.90;;;;;;5036115;28;20040;-59
2022/10/31 04:24:53;;;;;;;22.77;17.33;;;10.30;99.90;;;;;;5038841;28;20045;-60
2022/10/31 04:27:19;;;;;;;25.45;18.17;;;10.20;99.90;;;;;;5025923;28;20135;-59
2022/10/31 04:29:45;;;;;;;26.55;16.88;;;10.30;99.90;;;;;;5034031;28;20041;-60
2022/10/31 04:32:10;;;;;;;23.42;17.98;;;10.20;99.90;;;;;;5031953;28;20116;-60
2022/10/31 04:34:36;;;;;;;23.73;17.20;;;10.20;99.90;;;;;;5038766;28;20098;-61
2022/10/31 04:37:01;;;;;;;23.63;17.05;;;10.10;99.90;;;;;;5034686;28;20140;-60
2022/10/31 04:39:27;;;;;;;23.77;16.80;;;10.10;99.90;;;;;;5042638;28;20041;-60
2022/10/31 04:41:52;;;;;;;24.38;17.42;;;10.10;99.90;;;;;;5029192;28;20065;-61
2022/10/31 04:44:18;;;;;;;22.38;17.65;;;10.10;99.90;;;;;;5034320;28;20041;-61
2022/10/31 04:46:44;;;;;;;26.05;18.65;;;10.10;99.90;;;;;;5035119;28;20058;-60
2022/10/31 04:49:09;;;;;;;24.27;17.90;;;10.00;99.90;;;;;;5034499;28;20067;-59
2022/10/31 04:51:35;;;;;;;22.75;18.13;;;10.00;99.90;;;;;;5035161;28;20045;-60
2022/10/31 04:54:00;;;;;;;24.83;18.67;;;10.00;99.90;;;;;;5029617;28;20063;-60
2022/10/31 04:56:26;;;;;;;30.73;20.38;;;9.90;99.90;;;;;;5036710;28;20229;-60
2022/10/31 04:58:52;;;;;;;24.33;18.85;;;10.00;99.90;;;;;;5023248;28;20401;-60
2022/10/31 05:01:17;;;;;;;21.95;18.25;;;10.00;99.90;;;;;;5030230;28;20040;-59
2022/10/31 05:03:43;;;;;;;23.80;18.77;;;10.00;99.90;;;;;;5036093;28;20049;-60
2022/10/31 05:06:09;;;;;;;30.38;19.88;;;9.90;99.90;;;;;;5036589;28;20097;-59
2022/10/31 05:08:34;;;;;;;21.55;16.70;;;10.00;99.90;;;;;;5034564;28;20044;-59
2022/10/31 05:11:04;;;;;;;21.83;17.30;;;10.00;99.90;;;;;;5034646;28;20055;-60
2022/10/31 05:13:29;;;;;;;25.90;19.10;;;9.90;99.90;;;;;;5027686;28;20029;-59
2022/10/31 05:15:55;;;;;;;22.70;16.88;;;9.90;99.90;;;;;;5026050;28;20423;-60
2022/10/31 05:18:21;;;;;;;24.58;19.52;;;9.80;99.90;;;;;;5029115;28;20128;-61
2022/10/31 05:20:47;;;;;;;20.40;16.17;;;9.80;99.90;;;;;;5040771;28;20152;-59
2022/10/31 05:23:13;;;;;;;24.08;17.27;;;9.80;99.90;;;;;;5035946;28;20441;-60
2022/10/31 05:25:40;;;;;;;22.55;16.75;;;9.80;99.90;;;;;;5036645;28;21278;-59
2022/10/31 05:28:06;;;;;;;19.90;17.15;;;9.70;99.90;;;;;;5029138;28;20432;-58
2022/10/31 05:30:32;;;;;;;24.60;17.08;;;9.70;99.90;;;;;;5036892;28;20423;-59
2022/10/31 05:32:58;;;;;;;25.27;17.80;;;9.70;99.90;;;;;;5034075;28;20555;-59
2022/10/31 05:35:30;;;;;;;24.55;19.42;;;9.70;99.90;;;;;;5022996;28;20080;-61
2022/10/31 05:37:57;;;;;;;26.88;18.63;;;9.70;99.90;;;;;;5020897;28;20041;-60
2022/10/31 05:40:23;;;;;;;27.93;17.90;;;9.80;99.90;;;;;;5019213;28;20868;-60
2022/10/31 05:42:52;;;;;;;28.15;20.92;;;9.80;99.90;;;;;;5019017;28;20038;-59
2022/10/31 05:45:19;;;;;;;26.50;18.75;;;9.80;99.90;;;;;;5012754;28;20110;-60
2022/10/31 05:47:58;;;;;;;25.02;17.65;;;9.70;99.90;;;;;;5020975;28;20083;-58
2022/10/31 05:50:27;;;;;;;28.15;19.98;;;9.60;99.90;;;;;;5019213;28;20506;-60
2022/10/31 05:52:59;;;;;;;;;;;9.60;99.90;;;;;;5018686;28;20064;-58
2022/10/31 05:55:25;;;;;;;23.38;18.00;;;9.50;99.90;;;;;;5021243;28;19916;-60
2022/10/31 05:57:52;;;;;;;25.33;17.23;;;9.50;99.90;;;;;;5019066;28;20121;-60
2022/10/31 06:00:18;;;;;;;19.88;15.07;;;9.50;99.90;;;;;;5018656;28;20079;-60
2022/10/31 06:02:44;;;;;;;18.95;14.98;;;9.40;99.90;;;;;;5024022;28;20067;-59
2022/10/31 06:05:10;;;;;;;18.00;13.65;;;9.40;99.90;;;;;;5022979;28;20410;-60
2022/10/31 06:07:36;;;;;;;18.45;14.80;;;9.30;99.90;;;;;;5023242;28;20124;-59
2022/10/31 06:10:04;;;;;;;14.60;12.85;;;9.30;99.90;;;;;;5024673;28;20081;-59
2022/10/31 06:12:30;;;;;;;;;;;9.20;99.90;;;;;;5022688;28;20069;-60
2022/10/31 06:14:55;;;;;;;17.92;14.52;;;9.20;99.90;;;;;;5019885;28;20032;-60
2022/10/31 06:17:21;;;;;;;21.27;14.63;;;9.20;99.90;;;;;;5023088;28;20083;-59
2022/10/31 06:19:47;;;;;;;18.65;15.25;;;9.20;99.90;;;;;;5021885;28;20091;-58
2022/10/31 06:22:12;;;;;;;18.67;14.85;;;9.10;99.90;;;;;;5040187;28;20117;-59
2022/10/31 06:24:38;;;;;;;18.58;14.43;;;9.10;99.90;;;;;;5020873;28;20038;-57
2022/10/31 06:27:04;;;;;;;16.60;14.20;;;;;;;;;;5025394;28;20040;-59
2022/10/31 06:29:30;;;;;;;18.65;14.27;;;9.10;99.90;;;;;;5024214;28;20124;-58
2022/10/31 06:31:56;;;;;;;16.58;14.35;;;9.10;99.90;;;;;;5023820;28;20208;-57
2022/10/31 06:34:22;;;;;;;24.58;16.00;;;9.00;99.90;;;;;;5021570;28;20061;-59
2022/10/31 06:36:47;;;;;;;26.20;16.35;;;9.00;99.90;;;;;;5021816;28;20064;-57
2022/10/31 06:39:13;;;;;;;22.85;15.35;;;9.00;99.90;;;;;;5023431;28;20052;-58
2022/10/31 06:41:39;;;;;;;21.30;15.90;;;9.00;99.90;;;;;;5024227;28;20467;-59
2022/10/31 06:44:06;;;;;;;41.38;17.88;;;9.00;99.90;;;;;;5023620;28;20046;-58
2022/10/31 06:46:31;;;;;;;31.10;17.67;;;9.00;99.90;;;;;;5025322;28;20125;-59
2022/10/31 06:48:57;;;;;;;22.25;16.33;;;9.00;99.90;;;;;;5026482;28;20095;-59
2022/10/31 06:51:23;;;;;;;26.75;15.00;;;9.00;99.90;;;;;;5031053;28;20042;-59
2022/10/31 06:53:48;;;;;;;19.02;15.48;;;9.00;99.90;;;;;;5028879;28;20101;-58
2022/10/31 06:56:14;;;;;;;23.58;15.52;;;9.00;99.90;;;;;;5024960;28;20049;-58
2022/10/31 06:58:40;;;;;;;36.90;18.73;;;9.00;99.90;;;;;;5019477;28;20038;-59
2022/10/31 07:01:05;;;;;;;25.42;15.95;;;9.10;99.90;;;;;;5018971;28;20073;-58
2022/10/31 07:03:31;;;;;;;37.33;17.15;;;9.10;99.90;;;;;;5023525;28;20048;-59
2022/10/31 07:05:57;;;;;;;29.63;17.65;;;9.00;99.90;;;;;;5022102;28;20235;-59
2022/10/31 07:08:23;;;;;;;31.42;16.98;;;9.00;99.90;;;;;;5022726;28;20449;-59
2022/10/31 07:10:55;;;;;;;20.67;15.43;;;9.00;99.90;;;;;;5024949;28;20042;-59
2022/10/31 07:13:27;;;;;;;27.15;16.65;;;9.00;99.90;;;;;;5023984;28;20479;-60
2022/10/31 07:15:58;;;;;;;38.28;16.73;;;9.00;99.90;;;;;;5021427;28;20457;-60
2022/10/31 07:18:24;;;;;;;26.98;18.60;;;9.10;99.90;;;;;;5024584;28;20091;-59
2022/10/31 07:20:51;;;;;;;28.58;17.63;;;9.10;99.90;;;;;;5038504;28;20041;-62
2022/10/31 07:23:16;;;;;;;38.30;20.77;;;9.10;99.90;;;;;;5026193;28;20048;-60
2022/10/31 07:25:42;;;;;;;39.33;18.85;;;9.20;99.90;;;;;;5022357;28;20045;-60
2022/10/31 07:28:08;;;;;;;46.63;18.45;;;9.20;99.90;;;;;;5022859;28;20064;-59
2022/10/31 07:30:34;;;;;;;33.20;17.73;;;9.20;99.90;;;;;;5023423;28;21752;-59
2022/10/31 07:33:00;;;;;;;28.10;17.60;;;9.30;99.90;;;;;;5023245;28;20041;-60
2022/10/31 07:35:29;;;;;;;52.13;18.73;;;9.20;99.90;;;;;;5024386;28;20029;-59
2022/10/31 07:37:55;;;;;;;84.15;20.95;;;9.20;99.90;;;;;;5035059;28;20069;-60
2022/10/31 07:40:22;;;;;;;50.13;18.15;;;9.30;99.90;;;;;;5024477;28;20056;-60
2022/10/31 07:42:50;;;;;;;30.73;17.50;;;9.30;99.90;;;;;;5024906;28;20075;-60
2022/10/31 07:45:18;;;;;;;26.67;17.90;;;9.30;99.90;;;;;;5028168;28;20075;-60
2022/10/31 07:47:53;;;;;;;;;;;9.40;99.90;;;;;;5036586;28;20046;-60
2022/10/31 07:50:35;;;;;;;23.98;17.50;;;9.40;99.90;;;;;;5032002;28;20309;-60
2022/10/31 07:53:03;;;;;;;23.60;19.52;;;9.50;99.90;;;;;;5031398;28;20049;-60
2022/10/31 07:55:30;;;;;;;26.35;20.08;;;9.70;99.90;;;;;;5036191;28;20041;-59
2022/10/31 07:58:17;;;;;;;27.60;19.75;;;9.70;99.90;;;;;;5034363;28;20045;-60
2022/10/31 08:00:45;;;;;;;27.10;19.33;;;9.80;99.90;;;;;;5029926;28;20041;-59
2022/10/31 08:03:15;;;;;;;;;;;9.80;99.90;;;;;;5039663;28;20079;-59
2022/10/31 08:05:41;;;;;;;24.30;19.05;;;9.90;99.90;;;;;;5034344;28;19971;-60
2022/10/31 08:08:08;;;;;;;24.65;20.65;;;10.00;99.90;;;;;;5032389;28;20055;-59
2022/10/31 08:10:34;;;;;;;27.65;19.75;;;10.10;99.90;;;;;;5023234;28;20448;-59
2022/10/31 08:13:13;;;;;;;24.60;19.58;;;10.20;99.90;;;;;;5026567;28;20471;-59
2022/10/31 08:15:41;;;;;;;24.55;21.15;;;10.40;99.90;;;;;;5037544;28;20069;-60
2022/10/31 08:18:11;;;;;;;24.05;20.95;;;10.50;99.90;;;;;;5031745;28;20128;-60
2022/10/31 08:20:37;;;;;;;26.38;20.90;;;10.60;99.90;;;;;;5036839;28;20049;-60
2022/10/31 08:23:04;;;;;;;25.08;22.38;;;10.70;99.90;;;;;;5027928;28;20694;-60
2022/10/31 08:25:31;;;;;;;32.43;24.10;;;;;;;;;;5030762;28;20498;-60
2022/10/31 08:27:57;;;;;;;30.92;24.95;;;11.00;99.90;;;;;;5027381;28;20126;-60
2022/10/31 08:30:26;;;;;;;32.35;25.73;;;11.20;99.90;;;;;;5040646;28;20034;-59
2022/10/31 08:33:09;;;;;;;34.85;26.90;;;11.20;99.90;;;;;;5040537;28;20041;-60
2022/10/31 08:35:34;;;;;;;36.25;27.02;;;11.60;99.90;;;;;;5033170;28;20063;-57
2022/10/31 08:38:00;;;;;;;36.63;27.00;;;11.60;99.90;;;;;;5021729;28;20042;-59
2022/10/31 08:40:28;;;;;;;31.80;24.85;;;11.80;99.90;;;;;;5020136;28;20061;-58
2022/10/31 08:43:04;;;;;;;31.45;26.50;;;12.00;99.90;;;;;;5022104;28;20045;-58
2022/10/31 08:45:32;;;;;;;38.88;27.17;;;12.30;99.90;;;;;;5031008;28;20050;-59
2022/10/31 08:48:02;;;;;;;36.53;25.73;;;12.30;99.90;;;;;;5035196;28;20063;-59
2022/10/31 08:50:29;;;;;;;28.60;23.27;;;12.60;99.90;;;;;;5024336;28;20044;-59
2022/10/31 08:53:03;;;;;;;31.23;24.13;;;12.70;99.90;;;;;;5025003;28;20056;-59
2022/10/31 08:55:29;;;;;;;30.80;23.25;;;12.90;99.90;;;;;;5019337;28;20041;-59
2022/10/31 08:57:58;;;;;;;26.50;23.02;;;13.10;99.90;;;;;;5032810;28;20068;-59
2022/10/31 09:00:24;;;;;;;28.00;22.65;;;13.30;99.90;;;;;;5022759;28;20583;-59
2022/10/31 09:03:01;;;;;;;27.63;21.48;;;13.50;99.90;;;;;;5026409;28;20048;-60
2022/10/31 09:05:26;;;;;;;25.83;20.65;;;13.70;99.90;;;;;;5037762;28;20049;-59
2022/10/31 09:07:56;;;;;;;25.05;20.60;;;13.80;99.90;;;;;;5030201;28;20571;-60
2022/10/31 09:10:22;;;;;;;21.55;19.23;;;13.90;99.90;;;;;;5034035;28;20055;-60
2022/10/31 09:12:57;;;;;;;21.80;18.65;;;13.90;99.90;;;;;;5034271;28;20049;-60
2022/10/31 09:15:24;;;;;;;23.13;18.85;;;14.00;99.90;;;;;;5028006;28;20108;-59
2022/10/31 09:17:49;;;;;;;22.17;19.17;;;13.90;99.90;;;;;;5018084;28;20049;-59
2022/10/31 09:20:15;;;;;;;21.58;17.83;;;13.90;99.90;;;;;;5020852;28;20055;-59
2022/10/31 09:22:41;;;;;;;21.38;17.77;;;13.90;99.90;;;;;;5044381;28;20049;-59
2022/10/31 09:25:07;;;;;;;24.05;19.23;;;13.90;99.90;;;;;;5042374;28;20178;-59
2022/10/31 09:27:33;;;;;;;21.67;19.10;;;13.90;99.90;;;;;;5039618;28;20493;-59
2022/10/31 09:29:58;;;;;;;22.02;17.98;;;13.90;99.90;;;;;;5041196;28;20059;-60
2022/10/31 09:32:24;;;;;;;25.85;19.40;;;14.00;99.90;;;;;;5040216;28;20037;-58
2022/10/31 09:34:49;;;;;;;22.63;18.48;;;14.00;99.90;;;;;;5037120;28;20132;-60
2022/10/31 09:37:15;;;;;;;22.48;17.55;;;14.00;99.90;;;;;;5080251;22;20052;-59
2022/10/31 09:39:41;;;;;;;20.60;15.68;;;14.10;99.90;;;;;;5059817;28;20051;-59
2022/10/31 09:42:45;;;;;;;20.33;16.90;;;14.10;99.90;;;;;;5056762;28;20143;-59
2022/10/31 09:45:19;;;;;;;21.85;15.90;;;14.20;99.90;;;;;;5045136;28;20060;-57
2022/10/31 09:47:45;;;;;;;22.45;15.90;;;14.30;99.90;;;;;;5059162;28;20037;-59
2022/10/31 09:50:14;;;;;;;19.73;16.85;;;14.30;99.90;;;;;;5053327;28;20076;-58
2022/10/31 09:52:47;;;;;;;21.55;16.48;;;14.40;99.90;;;;;;5052135;28;20053;-60
2022/10/31 09:55:24;;;;;;;19.60;16.27;;;14.40;99.90;;;;;;5057210;28;20516;-58
2022/10/31 09:57:50;;;;;;;20.60;16.23;;;14.50;99.90;;;;;;5055801;28;20045;-59
2022/10/31 10:00:19;;;;;;;22.58;16.17;;;14.60;99.90;;;;;;5050636;28;20494;-60
2022/10/31 10:03:01;;;;;;;21.27;15.60;;;14.60;99.90;;;;;;5049846;28;20163;-60
2022/10/31 10:06:00;;;;;;;19.65;15.15;;;14.70;99.90;;;;;;5054887;28;20043;-62
2022/10/31 10:08:35;;;;;;;19.98;14.90;;;14.70;99.90;;;;;;5005975;28;20379;-59
2022/10/31 10:11:38;;;;;;;17.02;14.68;;;14.80;99.90;;;;;;5063782;28;20062;-60
2022/10/31 10:14:29;;;;;;;17.90;13.55;;;14.80;99.90;;;;;;5042722;28;20146;-58
2022/10/31 10:17:05;;;;;;;17.67;13.73;;;14.90;99.90;;;;;;5024550;28;20388;-59
2022/10/31 10:20:12;;;;;;;19.75;13.30;;;14.80;99.90;;;;;;5051829;28;20482;-59
2022/10/31 10:23:47;;;;;;;17.48;12.95;;;14.90;99.90;;;;;;5055868;28;20044;-58
2022/10/31 10:26:36;;;;;;;16.38;13.05;;;14.80;99.90;;;;;;5057307;28;20060;-59
2022/10/31 10:29:29;;;;;;;17.33;12.98;;;15.00;99.90;;;;;;5034055;28;20045;-59
2022/10/31 10:32:15;;;;;;;;;;;;;;;;;;;;;
2022/10/31 10:34:50;;;;;;;13.93;11.50;;;15.00;99.90;;;;;;5036728;28;20048;-61
2022/10/31 10:37:33;;;;;;;17.10;12.18;;;15.00;99.90;;;;;;5045794;28;20064;-61
2022/10/31 10:40:16;;;;;;;19.40;13.32;;;15.00;99.90;;;;;;5052933;28;20417;-59
2022/10/31 10:48:21;;;;;;;16.13;12.93;;;15.10;99.90;;;;;;5055043;28;20049;-61
2022/10/31 10:50:52;;;;;;;17.55;13.30;;;15.30;99.90;;;;;;5048695;28;20465;-61
2022/10/31 10:54:01;;;;;;;17.65;13.60;;;15.40;99.90;;;;;;5055155;28;20049;-62
2022/10/31 10:56:53;;;;;;;16.33;12.90;;;;;;;;;;5051188;28;20102;-61
2022/10/31 10:59:22;;;;;;;14.90;12.63;;;15.40;99.90;;;;;;5037081;28;20049;-61
2022/10/31 11:01:50;;;;;;;18.48;12.60;;;15.40;99.90;;;;;;5055717;28;20098;-60
2022/10/31 11:04:25;;;;;;;17.45;12.90;;;15.40;99.90;;;;;;5054353;28;20041;-59
2022/10/31 11:07:02;;;;;;;16.00;12.60;;;15.50;99.90;;;;;;5055139;28;20049;-60
2022/10/31 11:09:28;;;;;;;14.88;12.60;;;15.60;99.90;;;;;;5044889;28;20052;-59
2022/10/31 11:11:55;;;;;;;16.38;12.27;;;15.50;99.90;;;;;;5051899;28;20033;-58
2022/10/31 11:14:22;;;;;;;15.97;11.63;;;15.60;99.90;;;;;;5048503;28;20051;-59
2022/10/31 11:16:52;;;;;;;16.63;11.18;;;15.60;99.90;;;;;;5050445;28;21029;-58
2022/10/31 11:19:19;;;;;;;16.48;11.57;;;15.50;99.90;;;;;;5047457;28;20434;-59
2022/10/31 11:21:45;;;;;;;;;;;15.60;99.90;;;;;;5049573;28;20037;-58
2022/10/31 11:24:16;;;;;;;15.98;11.07;;;15.50;99.90;;;;;;5046185;28;20405;-59
2022/10/31 11:26:44;;;;;;;14.70;10.88;;;15.50;99.90;;;;;;5032797;28;20453;-59
2022/10/31 11:29:27;;;;;;;15.13;10.88;;;15.60;99.90;;;;;;5047290;28;20051;-58
2022/10/31 11:31:59;;;;;;;17.35;10.77;;;15.60;99.90;;;;;;5044524;28;20040;-59
2022/10/31 11:34:41;;;;;;;15.57;11.35;;;15.60;99.90;;;;;;5043366;28;20041;-57
2022/10/31 11:37:15;;;;;;;15.60;11.05;;;15.70;99.90;;;;;;5049621;28;20049;-61
2022/10/31 11:39:44;;;;;;;20.23;12.02;;;15.70;99.90;;;;;;5052398;28;20064;-60
2022/10/31 11:42:10;;;;;;;14.05;11.63;;;15.80;99.90;;;;;;5032201;28;20560;-59
2022/10/31 11:44:36;;;;;;;13.23;11.27;;;15.70;99.90;;;;;;5047634;28;20037;-59
2022/10/31 11:47:05;;;;;;;17.35;11.48;;;15.80;99.90;;;;;;5058388;28;20032;-60
2022/10/31 11:49:44;;;;;;;14.82;11.15;;;15.80;99.90;;;;;;5052463;28;20394;-60
2022/10/31 11:52:24;;;;;;;17.58;11.57;;;15.80;99.90;;;;;;5044248;28;20053;-59
2022/10/31 11:55:09;;;;;;;18.13;10.88;;;15.70;99.90;;;;;;5043521;28;20049;-61
2022/10/31 11:57:47;;;;;;;16.30;11.23;;;15.80;99.90;;;;;;4989472;28;20055;-58
2022/10/31 12:00:37;;;;;;;13.43;10.85;;;15.80;99.90;;;;;;5048145;28;20044;-60
2022/10/31 12:03:21;;;;;;;15.05;11.77;;;15.90;99.90;;;;;;5045325;28;20048;-59
2022/10/31 12:06:05;;;;;;;17.75;11.23;;;15.90;99.90;;;;;;5047007;28;20186;-58
2022/10/31 12:08:34;;;;;;;15.73;11.48;;;15.80;99.90;;;;;;5028206;28;20041;-60
2022/10/31 12:11:05;;;;;;;15.23;11.35;;;15.90;99.90;;;;;;5041610;28;20049;-60
2022/10/31 12:13:40;;;;;;;15.25;11.55;;;16.10;99.90;;;;;;5045947;28;20041;-60
2022/10/31 12:16:24;;;;;;;13.95;10.65;;;16.10;99.90;;;;;;5046114;28;20440;-59
2022/10/31 12:19:10;;;;;;;16.40;12.70;;;16.10;99.90;;;;;;5048482;28;20033;-59
2022/10/31 12:21:57;;;;;;;11.18;9.23;;;16.10;99.90;;;;;;5048629;28;20493;-59
2022/10/31 12:24:48;;;;;;;14.48;9.60;;;16.20;99.90;;;;;;5048138;28;20693;-59
2022/10/31 12:27:20;;;;;;;14.43;9.98;;;16.30;99.90;;;;;;5048185;28;20072;-58
2022/10/31 12:29:52;;;;;;;14.15;9.70;;;16.30;99.90;;;;;;5047530;28;20410;-60
2022/10/31 12:32:32;;;;;;;12.82;9.10;;;16.40;99.90;;;;;;5051654;28;20519;-60
2022/10/31 12:35:17;;;;;;;12.77;8.25;;;16.60;99.90;;;;;;5042460;28;20044;-60
2022/10/31 12:37:57;;;;;;;15.15;8.45;;;16.70;99.90;;;;;;5041507;28;20048;-61
2022/10/31 12:40:50;;;;;;;11.63;8.73;;;16.80;99.90;;;;;;5046106;28;20516;-60
2022/10/31 12:43:36;;;;;;;12.20;8.80;;;16.90;99.90;;;;;;5049803;28;20037;-61
2022/10/31 12:46:05;;;;;;;12.77;8.45;;;16.90;99.90;;;;;;5043387;28;20033;-60
2022/10/31 12:48:52;;;;;;;10.52;8.40;;;17.00;99.90;;;;;;5045179;28;20540;-60
2022/10/31 12:51:50;;;;;;;15.05;8.55;;;17.10;99.90;;;;;;5046120;28;20062;-59
2022/10/31 12:54:16;;;;;;;12.35;8.35;;;17.10;99.90;;;;;;5046490;28;20135;-61
2022/10/31 12:57:00;;;;;;;9.55;7.57;;;17.20;99.90;;;;;;5045102;28;20128;-60
2022/10/31 12:59:38;;;;;;;10.95;7.60;;;17.30;99.90;;;;;;5041727;28;20060;-60
2022/10/31 13:02:22;;;;;;;10.85;7.65;;;17.00;99.90;;;;;;5044179;28;20060;-59